createdAt,value
2022-09-10T00:02:36.794Z,0.90
2022-09-10T00:08:19.656Z,0.70
2022-09-10T00:14:02.440Z,0.60
2022-09-10T00:19:45.559Z,0.60
2022-09-10T00:22:36.651Z,1.00
2022-09-10T00:28:21.691Z,0.80
2022-09-10T00:34:05.968Z,0.70
2022-09-10T00:36:59.280Z,0.90
2022-09-10T00:42:44.355Z,0.73
2022-09-10T00:48:28.946Z,0.60
2022-09-10T00:54:12.786Z,0.93
2022-09-10T00:57:07.631Z,0.70
2022-09-10T01:02:51.411Z,0.70
2022-09-10T01:08:34.903Z,0.80
2022-09-10T01:11:38.894Z,0.70
2022-09-10T01:18:00.359Z,0.60
2022-09-10T01:23:58.810Z,0.70
2022-09-10T01:29:52.149Z,0.73
2022-09-10T01:35:46.614Z,0.80
2022-09-10T01:38:38.666Z,0.90
2022-09-10T01:44:43.665Z,0.80
2022-09-10T01:47:52.818Z,1.00
2022-09-10T01:53:47.814Z,1.50
2022-09-10T01:59:38.475Z,1.80
2022-09-10T02:05:35.276Z,2.10
2022-09-10T02:08:31.086Z,1.93
2022-09-10T02:14:23.468Z,2.43
2022-09-10T02:20:08.638Z,2.73
2022-09-10T02:25:51.957Z,3.63
2022-09-10T02:28:43.614Z,2.83
2022-09-10T02:34:24.780Z,3.00
2022-09-10T02:40:08.157Z,3.37
2022-09-10T02:45:51.418Z,3.70
2022-09-10T02:48:42.272Z,3.47
2022-09-10T02:54:25.077Z,3.77
2022-09-10T03:00:07.566Z,4.50
2022-09-10T03:05:48.699Z,4.30
2022-09-10T03:08:40.810Z,4.80
2022-09-10T03:14:25.760Z,3.97
2022-09-10T03:19:43.636Z,4.30
2022-09-10T03:25:26.620Z,4.13
2022-09-10T03:31:13.655Z,4.40
2022-09-10T03:34:06.173Z,4.00
2022-09-10T03:39:48.003Z,3.60
2022-09-10T03:45:31.023Z,3.77
2022-09-10T03:51:13.287Z,3.80
2022-09-10T03:54:06.059Z,3.80
2022-09-10T03:59:49.935Z,3.33
2022-09-10T04:05:33.024Z,2.93
2022-09-10T04:11:15.677Z,3.00
2022-09-10T04:17:00.832Z,3.13
2022-09-10T04:19:52.308Z,2.90
2022-09-10T04:25:37.001Z,2.63
2022-09-10T04:31:18.696Z,3.17
2022-09-10T04:34:10.646Z,2.80
2022-09-10T04:39:54.767Z,2.83
2022-09-10T04:45:41.217Z,2.60
2022-09-10T04:48:58.351Z,2.87
2022-09-10T04:54:17.857Z,2.57
2022-09-10T04:59:59.710Z,2.40
2022-09-10T05:05:46.017Z,2.43
2022-09-10T05:08:37.790Z,2.13
2022-09-10T05:14:20.772Z,2.73
2022-09-10T05:20:06.594Z,2.60
2022-09-10T05:25:49.961Z,3.23
2022-09-10T05:29:06.111Z,3.50
2022-09-10T05:32:16.485Z,2.43
2022-09-10T05:38:43.064Z,2.23
2022-09-10T05:41:10.554Z,2.43
2022-09-10T05:43:38.908Z,2.33
2022-09-10T05:46:05.244Z,2.13
2022-09-10T05:48:31.601Z,2.90
2022-09-10T05:50:58.120Z,3.17
2022-09-10T05:53:24.600Z,3.00
2022-09-10T05:55:50.890Z,2.50
2022-09-10T05:58:18.033Z,2.50
2022-09-10T06:00:45.425Z,2.67
2022-09-10T06:03:13.404Z,2.43
2022-09-10T06:05:50.388Z,2.67
2022-09-10T06:08:23.240Z,2.30
2022-09-10T06:10:58.383Z,2.40
2022-09-10T06:13:27.392Z,2.20
2022-09-10T06:15:54.927Z,2.40
2022-09-10T06:18:22.128Z,2.03
2022-09-10T06:20:48.997Z,2.27
2022-09-10T06:23:17.086Z,2.47
2022-09-10T06:25:45.950Z,2.77
2022-09-10T06:28:12.602Z,2.40
2022-09-10T06:30:40.190Z,2.40
2022-09-10T06:33:07.479Z,2.10
2022-09-10T06:35:35.969Z,2.50
2022-09-10T06:38:02.514Z,2.43
2022-09-10T06:40:29.599Z,2.60
2022-09-10T06:42:56.150Z,2.27
2022-09-10T06:45:41.138Z,2.60
2022-09-10T06:48:43.287Z,2.67
2022-09-10T06:51:12.775Z,2.73
2022-09-10T06:53:40.380Z,2.87
2022-09-10T06:56:12.730Z,3.00
2022-09-10T06:58:39.511Z,2.53
2022-09-10T07:01:17.288Z,2.80
2022-09-10T07:03:48.020Z,2.87
2022-09-10T07:06:15.975Z,2.93
2022-09-10T07:08:44.164Z,3.00
2022-09-10T07:11:13.334Z,2.07
2022-09-10T07:13:40.149Z,2.50
2022-09-10T07:16:07.494Z,2.13
2022-09-10T07:18:34.202Z,3.33
2022-09-10T07:21:09.167Z,2.70
2022-09-10T07:23:42.069Z,3.00
2022-09-10T07:26:09.815Z,2.67
2022-09-10T07:28:44.664Z,2.60
2022-09-10T07:31:22.905Z,2.80
2022-09-10T07:33:50.570Z,2.80
2022-09-10T07:36:17.864Z,2.60
2022-09-10T07:38:46.301Z,2.83
2022-09-10T07:41:13.936Z,2.53
2022-09-10T07:43:41.818Z,2.67
2022-09-10T07:46:12.461Z,1.90
2022-09-10T07:48:41.391Z,2.03
2022-09-10T07:51:11.116Z,2.17
2022-09-10T07:53:38.552Z,2.10
2022-09-10T07:56:06.273Z,1.97
2022-09-10T07:58:36.075Z,2.27
2022-09-10T08:01:09.542Z,2.10
2022-09-10T08:03:36.133Z,2.03
2022-09-10T08:06:03.184Z,2.00
2022-09-10T08:08:31.639Z,1.77
2022-09-10T08:11:12.019Z,1.90
2022-09-10T08:13:41.451Z,1.87
2022-09-10T08:16:10.147Z,1.53
2022-09-10T08:18:37.222Z,1.90
2022-09-10T08:21:05.005Z,1.40
2022-09-10T08:23:32.678Z,1.70
2022-09-10T08:25:59.230Z,1.40
2022-09-10T08:28:27.233Z,1.30
2022-09-10T08:30:58.596Z,1.37
2022-09-10T08:33:29.988Z,1.30
2022-09-10T08:36:00.865Z,1.10
2022-09-10T08:38:41.100Z,1.33
2022-09-10T08:41:29.084Z,1.40
2022-09-10T08:44:10.294Z,1.23
2022-09-10T08:46:41.109Z,0.97
2022-09-10T08:53:01.868Z,1.40
2022-09-10T08:58:31.441Z,1.00
2022-09-10T09:01:02.933Z,1.00
2022-09-10T09:03:51.620Z,1.43
2022-09-10T09:06:40.140Z,1.13
2022-09-10T09:09:15.462Z,1.00
2022-09-10T09:11:50.602Z,1.07
2022-09-10T09:14:20.125Z,1.17
2022-09-10T09:17:22.579Z,1.10
2022-09-10T09:19:59.117Z,1.20
2022-09-10T09:22:40.011Z,1.47
2022-09-10T09:25:20.855Z,1.10
2022-09-10T09:27:48.167Z,1.30
2022-09-10T09:30:19.533Z,1.20
2022-09-10T09:32:50.083Z,1.30
2022-09-10T09:35:19.938Z,1.30
2022-09-10T09:37:50.197Z,1.27
2022-09-10T09:40:21.072Z,1.40
2022-09-10T09:42:58.827Z,1.13
2022-09-10T09:45:35.440Z,1.47
2022-09-10T09:48:02.556Z,1.10
2022-09-10T09:50:31.986Z,1.50
2022-09-10T09:53:01.489Z,1.40
2022-09-10T09:55:30.944Z,1.13
2022-09-10T09:58:17.468Z,1.30
2022-09-10T10:00:45.578Z,1.30
2022-09-10T10:03:21.009Z,1.10
2022-09-10T10:05:48.266Z,1.10
2022-09-10T10:08:31.287Z,1.27
2022-09-10T10:11:00.194Z,1.20
2022-09-10T10:13:38.557Z,1.10
2022-09-10T10:16:15.662Z,1.23
2022-09-10T10:18:43.300Z,1.07
2022-09-10T10:22:09.004Z,1.00
2022-09-10T10:24:37.291Z,1.00
2022-09-10T10:27:11.237Z,1.30
2022-09-10T10:29:41.015Z,0.80
2022-09-10T10:32:19.506Z,1.00
2022-09-10T10:35:07.294Z,1.10
2022-09-10T10:37:39.264Z,0.97
2022-09-10T10:40:14.834Z,1.40
2022-09-10T10:42:48.392Z,1.20
2022-09-10T10:45:34.392Z,1.17
2022-09-10T10:48:11.873Z,1.27
2022-09-10T10:50:53.084Z,1.37
2022-09-10T10:53:29.656Z,1.40
2022-09-10T10:56:07.448Z,1.30
2022-09-10T10:58:37.818Z,1.93
2022-09-10T11:01:29.722Z,1.40
2022-09-10T11:04:01.060Z,1.37
2022-09-10T11:06:37.664Z,1.30
2022-09-10T11:09:23.024Z,1.50
2022-09-10T11:11:55.271Z,1.40
2022-09-10T11:14:36.299Z,1.83
2022-09-10T11:17:23.919Z,1.40
2022-09-10T11:20:17.590Z,3.20
2022-09-10T11:22:49.635Z,1.43
2022-09-10T11:25:24.669Z,1.37
2022-09-10T11:27:57.041Z,1.40
2022-09-10T11:30:28.427Z,1.37
2022-09-10T11:32:59.522Z,1.33
2022-09-10T11:35:28.280Z,1.00
2022-09-10T11:38:05.141Z,1.30
2022-09-10T11:40:35.317Z,0.83
2022-09-10T11:43:13.586Z,1.03
2022-09-10T11:45:45.249Z,1.07
2022-09-10T11:48:17.484Z,0.90
2022-09-10T11:50:50.773Z,0.90
2022-09-10T11:53:19.318Z,1.00
2022-09-10T11:56:11.544Z,0.80
2022-09-10T11:58:56.379Z,0.77
2022-09-10T12:01:34.337Z,0.47
2022-09-10T12:04:01.379Z,0.60
2022-09-10T12:06:44.711Z,0.40
2022-09-10T12:09:23.233Z,0.67
2022-09-10T12:11:57.458Z,0.60
2022-09-10T12:14:24.069Z,0.40
2022-09-10T12:16:52.427Z,0.50
2022-09-10T12:19:30.557Z,0.57
2022-09-10T12:22:17.188Z,0.50
2022-09-10T12:24:50.746Z,0.60
2022-09-10T12:27:18.330Z,0.50
2022-09-10T12:29:44.792Z,0.50
2022-09-10T12:32:15.507Z,0.67
2022-09-10T12:34:42.071Z,0.53
2022-09-10T12:37:11.540Z,0.40
2022-09-10T12:39:38.067Z,0.40
2022-09-10T12:42:26.933Z,0.40
2022-09-10T12:44:54.254Z,0.47
2022-09-10T12:47:28.911Z,0.40
2022-09-10T12:50:00.903Z,0.50
2022-09-10T12:52:51.909Z,0.40
2022-09-10T12:55:27.969Z,0.50
2022-09-10T12:57:58.551Z,0.33
2022-09-10T13:00:32.829Z,0.70
2022-09-10T13:03:09.032Z,0.30
2022-09-10T13:05:44.753Z,0.43
2022-09-10T13:08:19.228Z,0.40
2022-09-10T13:11:07.603Z,0.40
2022-09-10T13:13:52.529Z,0.60
2022-09-10T13:16:20.376Z,0.57
2022-09-10T13:18:55.038Z,0.50
2022-09-10T13:21:28.459Z,0.60
2022-09-10T13:23:55.239Z,0.60
2022-09-10T13:26:37.395Z,0.70
2022-09-10T13:29:22.467Z,0.90
2022-09-10T13:31:55.296Z,0.60
2022-09-10T13:34:33.118Z,0.83
2022-09-10T13:37:03.871Z,0.90
2022-09-10T13:39:51.051Z,0.70
2022-09-10T13:42:34.972Z,0.77
2022-09-10T13:45:11.309Z,0.80
2022-09-10T13:47:42.701Z,0.80
2022-09-10T13:50:14.292Z,0.80
2022-09-10T13:52:42.880Z,0.80
2022-09-10T13:55:15.380Z,0.70
2022-09-10T13:57:43.955Z,0.90
2022-09-10T14:00:13.375Z,0.77
2022-09-10T14:02:47.503Z,0.80
2022-09-10T14:05:24.369Z,0.70
2022-09-10T14:07:50.980Z,0.60
2022-09-10T14:10:18.199Z,0.60
2022-09-10T14:12:45.066Z,0.70
2022-09-10T14:15:16.988Z,0.60
2022-09-10T14:17:50.710Z,0.50
2022-09-10T14:20:24.467Z,0.70
2022-09-10T14:23:01.764Z,0.80
2022-09-10T14:25:35.086Z,0.80
2022-09-10T14:28:16.794Z,0.50
2022-09-10T14:30:47.752Z,0.73
2022-09-10T14:33:33.322Z,0.70
2022-09-10T14:36:38.412Z,0.80
2022-09-10T14:39:16.034Z,0.73
2022-09-10T14:41:42.729Z,0.73
2022-09-10T14:44:15.263Z,0.70
2022-09-10T14:46:46.072Z,0.50
2022-09-10T14:49:17.186Z,0.50
2022-09-10T14:51:43.924Z,0.53
2022-09-10T14:54:14.834Z,0.60
2022-09-10T14:56:43.835Z,0.60
2022-09-10T14:59:10.165Z,0.70
2022-09-10T15:01:36.682Z,0.60
2022-09-10T15:04:03.900Z,0.80
2022-09-10T15:06:31.589Z,0.80
2022-09-10T15:08:58.092Z,0.90
2022-09-10T15:11:25.973Z,1.00
2022-09-10T15:13:52.607Z,1.10
2022-09-10T15:16:18.911Z,1.00
2022-09-10T15:18:45.300Z,0.83
2022-09-10T15:21:15.221Z,0.90
2022-09-10T15:23:42.116Z,0.80
2022-09-10T15:26:13.706Z,0.80
2022-09-10T15:28:40.821Z,1.00
2022-09-10T15:31:07.747Z,1.20
2022-09-10T15:33:34.184Z,1.10
2022-09-10T15:36:00.557Z,1.60
2022-09-10T15:38:26.882Z,1.40
2022-09-10T15:41:02.948Z,1.90
2022-09-10T15:43:29.950Z,1.80
2022-09-10T15:46:01.297Z,1.63
2022-09-10T15:48:28.256Z,1.50
2022-09-10T15:50:56.200Z,0.97
2022-09-10T15:53:22.535Z,0.90
2022-09-10T15:55:49.075Z,1.20
2022-09-10T15:58:15.401Z,1.20
2022-09-10T16:00:41.890Z,1.00
2022-09-10T16:03:08.426Z,1.10
2022-09-10T16:05:35.398Z,1.20
2022-09-10T16:08:01.861Z,1.40
2022-09-10T16:10:28.182Z,1.30
2022-09-10T16:12:54.506Z,1.80
2022-09-10T16:15:20.862Z,1.57
2022-09-10T16:17:47.183Z,1.40
2022-09-10T16:20:13.513Z,1.70
2022-09-10T16:22:39.851Z,1.73
2022-09-10T16:25:08.732Z,1.20
2022-09-10T16:27:35.088Z,1.30
2022-09-10T16:30:01.484Z,1.37
2022-09-10T16:32:28.724Z,1.67
2022-09-10T16:34:55.695Z,1.60
2022-09-10T16:37:23.336Z,1.67
2022-09-10T16:39:49.695Z,1.10
2022-09-10T16:42:17.196Z,1.20
2022-09-10T16:44:43.520Z,1.40
2022-09-10T16:47:09.873Z,1.30
2022-09-10T16:49:36.583Z,1.50
2022-09-10T16:52:03.013Z,1.50
2022-09-10T16:54:31.885Z,1.30
2022-09-10T16:56:58.228Z,1.33
2022-09-10T16:59:25.704Z,1.30
2022-09-10T17:01:53.104Z,1.40
2022-09-10T17:04:26.007Z,1.30
2022-09-10T17:06:55.250Z,1.40
2022-09-10T17:09:22.408Z,1.10
2022-09-10T17:11:48.799Z,1.27
2022-09-10T17:14:15.107Z,1.60
2022-09-10T17:16:41.924Z,1.50
2022-09-10T17:19:14.146Z,1.33
2022-09-10T17:21:43.003Z,1.40
2022-09-10T17:24:10.433Z,1.30
2022-09-10T17:26:37.681Z,1.07
2022-09-10T17:29:06.255Z,1.60
2022-09-10T17:31:35.863Z,1.30
2022-09-10T17:34:03.619Z,1.40
2022-09-10T17:36:30.631Z,1.30
2022-09-10T17:38:59.076Z,1.80
2022-09-10T17:41:26.268Z,1.30
2022-09-10T17:43:54.529Z,1.70
2022-09-10T17:46:22.877Z,1.60
2022-09-10T17:48:49.983Z,1.50
2022-09-10T17:51:17.803Z,1.47
2022-09-10T17:53:44.758Z,1.80
2022-09-10T17:56:12.072Z,2.13
2022-09-10T17:58:38.612Z,2.40
2022-09-10T18:01:07.859Z,2.30
2022-09-10T18:03:34.944Z,2.43
2022-09-10T18:06:05.394Z,2.40
2022-09-10T18:08:32.585Z,2.90
2022-09-10T18:11:06.682Z,3.60
2022-09-10T18:13:34.181Z,3.37
2022-09-10T18:16:04.412Z,2.87
2022-09-10T18:18:30.809Z,2.80
2022-09-10T18:20:58.176Z,3.20
2022-09-10T18:23:25.297Z,2.50
2022-09-10T18:25:52.585Z,2.50
2022-09-10T18:28:19.053Z,2.53
2022-09-10T18:30:45.606Z,2.83
2022-09-10T18:33:13.058Z,2.87
2022-09-10T18:35:40.435Z,2.97
2022-09-10T18:38:06.877Z,3.07
2022-09-10T18:40:34.434Z,3.17
2022-09-10T18:43:00.771Z,2.67
2022-09-10T18:45:27.917Z,2.77
2022-09-10T18:47:54.256Z,3.30
2022-09-10T18:50:20.876Z,3.63
2022-09-10T18:52:47.264Z,3.23
2022-09-10T18:55:13.598Z,3.37
2022-09-10T18:57:39.977Z,3.43
2022-09-10T19:00:06.598Z,3.03
2022-09-10T19:02:33.036Z,3.43
2022-09-10T19:05:11.386Z,3.20
2022-09-10T19:07:38.553Z,3.40
2022-09-10T19:10:06.897Z,3.50
2022-09-10T19:12:33.324Z,4.23
2022-09-10T19:14:59.765Z,3.80
2022-09-10T19:17:29.118Z,3.80
2022-09-10T19:19:55.565Z,3.83
2022-09-10T19:22:21.906Z,3.27
2022-09-10T19:24:54.895Z,3.53
2022-09-10T19:27:21.576Z,3.80
2022-09-10T19:29:49.604Z,3.20
2022-09-10T19:32:16.917Z,3.67
2022-09-10T19:34:43.505Z,3.70
2022-09-10T19:37:10.009Z,3.47
2022-09-10T19:39:36.439Z,3.90
2022-09-10T19:42:02.853Z,3.80
2022-09-10T19:44:29.152Z,3.83
2022-09-10T19:46:55.488Z,3.20
2022-09-10T19:49:22.199Z,3.53
2022-09-10T19:51:48.529Z,3.60
2022-09-10T19:54:14.924Z,3.40
2022-09-10T19:56:42.531Z,3.40
2022-09-10T19:59:09.764Z,3.47
2022-09-10T20:01:37.557Z,3.77
2022-09-10T20:04:05.011Z,3.57
2022-09-10T20:06:31.799Z,3.40
2022-09-10T20:08:58.530Z,2.53
2022-09-10T20:11:26.633Z,2.57
2022-09-10T20:13:54.917Z,2.13
2022-09-10T20:16:21.362Z,2.00
2022-09-10T20:18:47.738Z,2.00
2022-09-10T20:21:15.591Z,1.50
2022-09-10T20:23:42.737Z,1.00
2022-09-10T20:26:10.725Z,0.90
2022-09-10T20:28:37.530Z,1.00
2022-09-10T20:31:08.802Z,1.00
2022-09-10T20:33:36.568Z,1.00
2022-09-10T20:36:03.821Z,0.80
2022-09-10T20:38:30.133Z,1.10
2022-09-10T20:40:56.479Z,1.07
2022-09-10T20:43:22.833Z,1.00
2022-09-10T20:45:49.310Z,1.43
2022-09-10T20:48:15.642Z,1.40
2022-09-10T20:50:50.587Z,1.50
2022-09-10T20:53:16.960Z,2.07
2022-09-10T20:55:43.285Z,1.90
2022-09-10T20:58:09.611Z,2.10
2022-09-10T21:00:35.928Z,2.37
2022-09-10T21:03:03.641Z,3.00
2022-09-10T21:05:29.974Z,3.03
2022-09-10T21:07:56.321Z,3.03
2022-09-10T21:10:22.646Z,3.60
2022-09-10T21:12:48.960Z,3.93
2022-09-10T21:15:15.741Z,4.50
2022-09-10T21:17:42.086Z,3.60
2022-09-10T21:20:09.542Z,4.23
2022-09-10T21:22:35.869Z,4.47
2022-09-10T21:25:02.229Z,3.90
2022-09-10T21:27:29.100Z,4.37
2022-09-10T21:29:55.437Z,4.63
2022-09-10T21:32:23.256Z,4.93
2022-09-10T21:34:49.624Z,4.60
2022-09-10T21:37:16.163Z,5.30
2022-09-10T21:39:43.733Z,5.43
2022-09-10T21:42:11.550Z,4.97
2022-09-10T21:44:37.893Z,5.07
2022-09-10T21:47:04.531Z,4.83
2022-09-10T21:49:30.860Z,5.00
2022-09-10T21:51:57.439Z,5.23
2022-09-10T21:54:24.233Z,5.27
2022-09-10T21:56:51.169Z,4.90
2022-09-10T21:59:18.123Z,5.27
2022-09-10T22:01:45.302Z,5.20
2022-09-10T22:04:12.573Z,5.87
2022-09-10T22:06:38.948Z,5.20
2022-09-10T22:09:09.790Z,6.40
2022-09-10T22:11:37.507Z,5.60
2022-09-10T22:14:05.251Z,5.67
2022-09-10T22:16:32.652Z,6.17
2022-09-10T22:19:00.515Z,6.17
2022-09-10T22:21:27.415Z,5.93
2022-09-10T22:23:53.757Z,6.43
2022-09-10T22:26:21.523Z,6.47
2022-09-10T22:28:51.249Z,6.00
2022-09-10T22:31:19.152Z,6.50
2022-09-10T22:33:46.558Z,6.33
2022-09-10T22:36:14.252Z,5.67
2022-09-10T22:38:41.462Z,6.10
2022-09-10T22:41:10.086Z,6.23
2022-09-10T22:43:37.531Z,6.37
2022-09-10T22:46:06.880Z,6.60
2022-09-10T22:48:34.481Z,6.47
2022-09-10T22:51:00.885Z,6.67
2022-09-10T22:53:27.218Z,7.17
2022-09-10T22:55:53.783Z,6.40
2022-09-10T22:58:20.213Z,7.53
2022-09-10T23:00:46.660Z,6.43
2022-09-10T23:03:13.157Z,6.43
2022-09-10T23:05:39.498Z,7.47
2022-09-10T23:08:05.817Z,6.80
2022-09-10T23:10:32.642Z,7.10
2022-09-10T23:12:58.974Z,7.20
2022-09-10T23:15:25.358Z,7.60
2022-09-10T23:17:54.041Z,7.97
2022-09-10T23:20:20.370Z,7.43
2022-09-10T23:22:47.996Z,7.73
2022-09-10T23:25:14.370Z,8.57
2022-09-10T23:27:40.694Z,7.70
2022-09-10T23:30:07.449Z,8.30
2022-09-10T23:32:33.760Z,8.10
2022-09-10T23:35:00.339Z,8.67
2022-09-10T23:37:26.693Z,8.70
2022-09-10T23:39:53.069Z,7.93
2022-09-10T23:42:19.405Z,8.17
2022-09-10T23:44:45.765Z,9.00
2022-09-10T23:47:12.799Z,8.50
2022-09-10T23:49:39.206Z,7.73
2022-09-10T23:52:05.530Z,8.80
2022-09-10T23:54:31.851Z,8.40
2022-09-10T23:56:58.257Z,8.93
2022-09-10T23:59:25.178Z,8.43
